createdAt,value
2018-06-18T00:00:03.189Z,18.30
2018-06-18T00:02:32.847Z,18.27
2018-06-18T00:05:02.780Z,18.25
2018-06-18T00:07:32.462Z,18.26
2018-06-18T00:10:02.299Z,18.27
2018-06-18T00:12:32.222Z,18.25
2018-06-18T00:15:01.789Z,18.25
2018-06-18T00:17:31.625Z,18.30
2018-06-18T00:20:01.438Z,18.31
2018-06-18T00:22:31.114Z,18.26
2018-06-18T00:25:01.906Z,18.23
2018-06-18T00:27:31.596Z,18.17
2018-06-18T00:30:01.538Z,18.04
2018-06-18T00:32:31.356Z,17.84
2018-06-18T00:35:01.314Z,17.73
2018-06-18T00:37:31.299Z,17.62
2018-06-18T00:40:01.148Z,17.51
2018-06-18T00:42:31.117Z,17.42
2018-06-18T00:45:01.303Z,17.31
2018-06-18T00:47:30.932Z,17.15
2018-06-18T00:50:01.185Z,17.02
2018-06-18T00:52:30.917Z,16.92
2018-06-18T00:55:00.653Z,16.78
2018-06-18T00:57:30.328Z,16.61
2018-06-18T01:00:00.238Z,16.48
2018-06-18T01:02:30.091Z,16.34
2018-06-18T01:04:59.956Z,16.25
2018-06-18T01:07:30.752Z,16.26
2018-06-18T01:10:00.634Z,16.22
2018-06-18T01:12:30.444Z,16.21
2018-06-18T01:15:00.295Z,16.17
2018-06-18T01:17:30.027Z,16.10
2018-06-18T01:20:01.675Z,16.06
2018-06-18T01:22:32.086Z,15.99
2018-06-18T01:25:04.386Z,15.95
2018-06-18T01:27:34.440Z,15.96
2018-06-18T01:30:05.528Z,15.99
2018-06-18T01:32:35.308Z,15.97
2018-06-18T01:35:05.180Z,15.93
2018-06-18T01:37:34.875Z,15.88
2018-06-18T01:40:04.743Z,15.85
2018-06-18T01:42:34.734Z,15.77
2018-06-18T01:45:04.765Z,15.73
2018-06-18T01:47:34.645Z,15.77
2018-06-18T01:50:04.476Z,15.80
2018-06-18T01:52:34.418Z,15.78
2018-06-18T01:55:04.265Z,15.76
2018-06-18T01:57:34.089Z,15.82
2018-06-18T02:00:04.232Z,15.91
2018-06-18T02:02:33.917Z,15.96
2018-06-18T02:05:03.550Z,15.99
2018-06-18T02:07:33.549Z,15.99
2018-06-18T02:10:03.064Z,15.96
2018-06-18T02:12:32.902Z,15.94
2018-06-18T02:15:02.926Z,15.90
2018-06-18T02:17:32.823Z,15.84
2018-06-18T02:20:02.880Z,15.82
2018-06-18T02:22:32.776Z,15.88
2018-06-18T02:25:02.689Z,15.94
2018-06-18T02:27:37.648Z,15.92
2018-06-18T02:30:12.417Z,15.87
2018-06-18T02:32:47.271Z,15.76
2018-06-18T02:35:22.120Z,15.62
2018-06-18T02:37:57.150Z,15.52
2018-06-18T02:40:33.735Z,15.49
2018-06-18T02:43:03.782Z,15.44
2018-06-18T02:45:33.685Z,15.43
2018-06-18T02:48:03.579Z,15.45
2018-06-18T02:50:33.537Z,15.51
2018-06-18T02:53:03.321Z,15.59
2018-06-18T02:55:33.133Z,15.61
2018-06-18T02:58:06.394Z,15.64
2018-06-18T03:00:36.201Z,15.65
2018-06-18T03:03:05.958Z,15.74
2018-06-18T03:05:35.895Z,15.83
2018-06-18T03:08:06.733Z,15.94
2018-06-18T03:10:36.650Z,16.08
2018-06-18T03:13:06.677Z,16.17
2018-06-18T03:15:36.168Z,16.28
2018-06-18T03:18:06.197Z,16.33
2018-06-18T03:21:39.034Z,16.38
2018-06-18T03:24:11.830Z,16.39
2018-06-18T03:26:46.638Z,16.38
2018-06-18T03:29:18.988Z,16.34
2018-06-18T03:31:49.118Z,16.36
2018-06-18T03:34:18.948Z,16.35
2018-06-18T03:36:48.813Z,16.35
2018-06-18T03:39:18.703Z,16.38
2018-06-18T03:41:50.358Z,16.45
2018-06-18T03:44:26.403Z,16.46
2018-06-18T03:46:56.891Z,16.49
2018-06-18T03:49:26.497Z,16.51
2018-06-18T03:51:56.189Z,16.52
2018-06-18T03:54:26.117Z,16.57
2018-06-18T03:56:55.757Z,16.64
2018-06-18T03:59:25.636Z,16.70
2018-06-18T04:02:03.269Z,16.71
2018-06-18T04:04:42.316Z,16.74
2018-06-18T04:07:16.781Z,16.78
2018-06-18T04:09:51.491Z,16.85
2018-06-18T04:12:21.561Z,16.91
2018-06-18T04:14:51.044Z,16.96
2018-06-18T04:17:22.115Z,17.02
2018-06-18T04:19:51.731Z,17.07
2018-06-18T04:22:21.604Z,17.07
2018-06-18T04:24:51.265Z,17.03
2018-06-18T04:27:21.037Z,17.02
2018-06-18T04:29:50.838Z,17.01
2018-06-18T04:32:20.651Z,17.07
2018-06-18T04:34:53.037Z,17.16
2018-06-18T04:37:22.892Z,17.22
2018-06-18T04:39:52.784Z,17.31
2018-06-18T04:42:27.472Z,17.42
2018-06-18T04:45:02.116Z,17.54
2018-06-18T04:47:37.073Z,17.62
2018-06-18T04:50:11.642Z,17.66
2018-06-18T04:52:41.393Z,17.76
2018-06-18T04:55:11.264Z,17.84
2018-06-18T04:57:42.299Z,17.95
2018-06-18T05:00:20.062Z,18.07
2018-06-18T05:02:50.032Z,18.17
2018-06-18T05:05:19.882Z,18.22
2018-06-18T05:07:53.052Z,18.29
2018-06-18T05:10:27.013Z,18.39
2018-06-18T05:12:56.889Z,18.45
2018-06-18T05:15:30.037Z,18.56
2018-06-18T05:18:01.963Z,18.63
2018-06-18T05:20:33.735Z,18.69
2018-06-18T05:23:08.758Z,18.78
2018-06-18T05:25:38.791Z,18.84
2018-06-18T05:28:08.369Z,18.93
2018-06-18T05:30:38.118Z,19.05
2018-06-18T05:33:08.033Z,19.13
2018-06-18T05:35:37.682Z,19.20
2018-06-18T05:38:13.206Z,19.21
2018-06-18T05:40:43.046Z,19.28
2018-06-18T05:43:12.747Z,19.29
2018-06-18T05:45:42.853Z,19.44
2018-06-18T05:48:12.903Z,19.57
2018-06-18T05:50:43.032Z,19.64
2018-06-18T05:53:12.997Z,19.72
2018-06-18T05:55:42.722Z,19.80
2018-06-18T05:58:12.707Z,19.80
2018-06-18T06:00:42.539Z,19.79
2018-06-18T06:03:12.341Z,19.72
2018-06-18T06:05:42.233Z,19.68
2018-06-18T06:08:12.110Z,19.75
2018-06-18T06:10:42.055Z,19.84
2018-06-18T06:13:12.334Z,19.98
2018-06-18T06:15:42.276Z,20.13
2018-06-18T06:18:12.006Z,20.29
2018-06-18T06:20:47.776Z,20.38
2018-06-18T06:23:17.738Z,20.44
2018-06-18T06:25:47.568Z,20.50
2018-06-18T06:28:17.339Z,20.57
2018-06-18T06:30:47.002Z,20.65
2018-06-18T06:33:16.702Z,20.82
2018-06-18T06:35:46.852Z,20.91
2018-06-18T06:38:16.470Z,20.95
2018-06-18T06:40:46.393Z,20.98
2018-06-18T06:43:16.195Z,21.03
2018-06-18T06:45:46.119Z,21.06
2018-06-18T06:48:15.985Z,21.12
2018-06-18T06:50:46.775Z,21.20
2018-06-18T06:53:16.489Z,21.22
2018-06-18T06:55:46.131Z,21.32
2018-06-18T06:58:15.860Z,21.43
2018-06-18T07:00:45.902Z,21.51
2018-06-18T07:03:15.772Z,21.58
2018-06-18T07:05:45.551Z,21.71
2018-06-18T07:08:15.604Z,21.70
2018-06-18T07:10:45.472Z,21.63
2018-06-18T07:13:15.234Z,21.71
2018-06-18T07:15:45.124Z,21.77
2018-06-18T07:18:15.906Z,21.87
2018-06-18T07:20:45.759Z,22.02
2018-06-18T07:23:15.866Z,22.05
2018-06-18T07:25:45.678Z,22.15
2018-06-18T07:28:15.271Z,22.28
2018-06-18T07:30:45.326Z,22.27
2018-06-18T07:33:15.193Z,22.14
2018-06-18T07:35:44.702Z,22.08
2018-06-18T07:38:14.613Z,22.14
2018-06-18T07:40:44.554Z,22.24
2018-06-18T07:43:14.544Z,22.40
2018-06-18T07:45:44.466Z,22.60
2018-06-18T07:48:14.398Z,22.74
2018-06-18T07:50:44.211Z,22.75
2018-06-18T07:53:14.050Z,22.92
2018-06-18T07:55:43.989Z,23.16
2018-06-18T07:58:13.927Z,23.29
2018-06-18T08:00:43.648Z,23.28
2018-06-18T08:03:13.372Z,23.22
2018-06-18T08:05:43.287Z,23.26
2018-06-18T08:08:12.914Z,23.04
2018-06-18T08:10:42.706Z,22.88
2018-06-18T08:13:12.804Z,22.81
2018-06-18T08:15:42.505Z,22.85
2018-06-18T08:18:12.284Z,22.80
2018-06-18T08:20:42.148Z,22.69
2018-06-18T08:23:12.135Z,22.68
2018-06-18T08:25:41.919Z,22.60
2018-06-18T08:28:11.630Z,22.57
2018-06-18T08:30:41.541Z,22.70
2018-06-18T08:33:11.374Z,22.86
2018-06-18T08:35:41.092Z,22.94
2018-06-18T08:38:11.494Z,22.87
2018-06-18T08:40:41.124Z,23.02
2018-06-18T08:43:11.088Z,23.01
2018-06-18T08:45:41.074Z,23.05
2018-06-18T08:48:11.947Z,23.29
2018-06-18T08:50:46.852Z,23.43
2018-06-18T08:53:21.527Z,23.50
2018-06-18T08:55:56.060Z,23.58
2018-06-18T08:58:30.643Z,23.68
2018-06-18T09:01:05.294Z,23.79
2018-06-18T09:03:40.112Z,23.90
2018-06-18T09:06:09.983Z,24.09
2018-06-18T09:08:44.405Z,24.31
2018-06-18T09:11:14.465Z,24.44
2018-06-18T09:13:44.546Z,24.55
2018-06-18T09:16:14.181Z,24.53
2018-06-18T09:18:43.957Z,24.61
2018-06-18T09:21:13.807Z,24.92
2018-06-18T09:23:43.848Z,25.19
2018-06-18T09:26:13.681Z,25.31
2018-06-18T09:28:43.250Z,24.70
2018-06-18T09:31:13.364Z,24.43
2018-06-18T09:33:44.005Z,24.03
2018-06-18T09:36:14.294Z,23.69
2018-06-18T09:38:44.274Z,23.39
2018-06-18T09:41:14.093Z,23.23
2018-06-18T09:43:43.753Z,23.15
2018-06-18T09:46:13.496Z,23.19
2018-06-18T09:48:48.149Z,23.18
2018-06-18T09:51:23.019Z,23.05
2018-06-18T09:53:57.478Z,22.79
2018-06-18T09:56:32.182Z,22.83
2018-06-18T09:59:07.033Z,23.00
2018-06-18T10:01:36.884Z,23.05
2018-06-18T10:04:06.662Z,23.21
2018-06-18T10:06:38.386Z,23.25
2018-06-18T10:09:09.574Z,23.13
2018-06-18T10:11:39.697Z,23.29
2018-06-18T10:14:11.157Z,23.31
2018-06-18T10:16:41.076Z,23.46
2018-06-18T10:19:10.987Z,23.47
2018-06-18T10:21:40.717Z,23.42
2018-06-18T10:24:10.667Z,23.46
2018-06-18T10:26:40.530Z,23.54
2018-06-18T10:29:10.500Z,23.57
2018-06-18T10:31:40.557Z,23.59
2018-06-18T10:34:15.092Z,23.57
2018-06-18T10:36:50.075Z,23.52
2018-06-18T10:39:24.896Z,23.66
2018-06-18T10:41:59.866Z,23.61
2018-06-18T10:44:29.636Z,23.70
2018-06-18T10:46:59.395Z,23.96
2018-06-18T10:49:29.275Z,24.17
2018-06-18T10:51:59.047Z,24.40
2018-06-18T10:54:29.001Z,24.55
2018-06-18T10:56:59.291Z,24.49
2018-06-18T10:59:29.159Z,24.37
2018-06-18T11:01:58.933Z,24.24
2018-06-18T11:04:29.886Z,24.25
2018-06-18T11:07:00.564Z,24.47
2018-06-18T11:09:30.415Z,24.68
2018-06-18T11:12:00.298Z,25.08
2018-06-18T11:14:30.045Z,25.26
2018-06-18T11:17:05.091Z,25.33
2018-06-18T11:19:39.309Z,25.56
2018-06-18T11:22:09.618Z,25.79
2018-06-18T11:24:44.188Z,25.98
2018-06-18T11:27:14.457Z,26.21
2018-06-18T11:29:44.333Z,26.59
2018-06-18T11:32:14.251Z,26.08
2018-06-18T11:34:44.113Z,25.94
2018-06-18T11:37:13.994Z,26.30
2018-06-18T11:39:43.647Z,26.26
2018-06-18T11:42:13.381Z,26.64
2018-06-18T11:44:43.208Z,26.95
2018-06-18T11:47:12.993Z,27.42
2018-06-18T11:49:42.727Z,27.65
2018-06-18T11:52:12.677Z,27.50
2018-06-18T11:54:42.659Z,27.41
2018-06-18T11:57:12.397Z,27.22
2018-06-18T12:00:47.802Z,27.05
2018-06-18T12:03:22.393Z,26.76
2018-06-18T12:06:55.179Z,26.82
2018-06-18T12:09:30.888Z,26.53
2018-06-18T12:12:00.857Z,26.22
2018-06-18T12:14:30.651Z,25.96
2018-06-18T12:17:00.728Z,25.99
2018-06-18T12:19:30.560Z,26.32
2018-06-18T12:22:00.458Z,27.02
2018-06-18T12:24:30.241Z,26.84
2018-06-18T12:27:00.463Z,26.86
2018-06-18T12:29:30.806Z,26.89
2018-06-18T12:32:00.641Z,27.02
2018-06-18T12:34:30.608Z,27.11
2018-06-18T12:37:00.404Z,27.73
2018-06-18T12:39:30.583Z,28.30
2018-06-18T12:42:04.264Z,28.59
2018-06-18T12:44:40.000Z,28.85
2018-06-18T12:47:14.558Z,29.21
2018-06-18T12:49:49.329Z,29.73
2018-06-18T12:52:24.089Z,29.98
2018-06-18T12:54:58.541Z,29.73
2018-06-18T12:57:28.496Z,29.99
2018-06-18T12:59:58.292Z,30.11
2018-06-18T13:02:35.353Z,30.03
2018-06-18T13:05:06.084Z,30.02
2018-06-18T13:07:38.795Z,30.13
2018-06-18T13:10:08.956Z,30.16
2018-06-18T13:12:38.599Z,29.91
2018-06-18T13:15:08.540Z,29.26
2018-06-18T13:17:38.448Z,29.16
2018-06-18T13:20:08.649Z,29.35
2018-06-18T13:22:38.416Z,29.65
2018-06-18T13:25:08.228Z,29.90
2018-06-18T13:27:42.981Z,29.73
2018-06-18T13:30:12.851Z,30.07
2018-06-18T13:32:42.782Z,30.31
2018-06-18T13:35:12.686Z,30.55
2018-06-18T13:37:47.346Z,30.67
2018-06-18T13:40:22.037Z,30.89
2018-06-18T13:42:56.835Z,30.71
2018-06-18T13:45:35.216Z,30.38
2018-06-18T13:48:10.000Z,30.52
2018-06-18T13:50:40.632Z,30.57
2018-06-18T13:53:10.519Z,30.70
2018-06-18T13:55:40.411Z,30.50
2018-06-18T13:58:10.432Z,30.67
2018-06-18T14:00:40.226Z,30.68
2018-06-18T14:03:09.936Z,30.35
2018-06-18T14:05:39.923Z,29.89
2018-06-18T14:08:09.643Z,29.78
2018-06-18T14:10:40.598Z,30.03
2018-06-18T14:13:10.387Z,30.33
2018-06-18T14:15:40.148Z,29.43
2018-06-18T14:18:09.992Z,29.51
2018-06-18T14:20:39.607Z,29.46
2018-06-18T14:23:10.405Z,29.30
2018-06-18T14:25:40.343Z,29.34
2018-06-18T14:28:10.215Z,29.88
2018-06-18T14:30:45.036Z,30.35
2018-06-18T14:33:19.992Z,30.72
2018-06-18T14:35:54.923Z,30.61
2018-06-18T14:38:30.798Z,30.89
2018-06-18T14:41:00.607Z,30.54
2018-06-18T14:43:30.436Z,30.79
2018-06-18T14:46:01.276Z,31.11
2018-06-18T14:48:31.270Z,31.18
2018-06-18T14:51:00.963Z,31.15
2018-06-18T14:53:30.733Z,31.49
2018-06-18T14:56:17.943Z,32.26
2018-06-18T14:58:59.041Z,32.45
2018-06-18T15:01:28.704Z,32.88
2018-06-18T15:03:58.398Z,33.28
2018-06-18T15:06:28.267Z,33.18
2018-06-18T15:08:58.342Z,33.05
2018-06-18T15:11:27.988Z,32.92
2018-06-18T15:13:59.004Z,32.82
2018-06-18T15:16:31.198Z,32.21
2018-06-18T15:19:01.830Z,31.37
2018-06-18T15:21:34.730Z,30.55
2018-06-18T15:24:07.462Z,30.30
2018-06-18T15:26:37.197Z,30.70
2018-06-18T15:29:07.114Z,30.43
2018-06-18T15:31:36.663Z,30.22
2018-06-18T15:34:06.334Z,30.49
2018-06-18T15:36:36.310Z,31.01
2018-06-18T15:39:09.098Z,31.65
2018-06-18T15:41:38.977Z,31.95
2018-06-18T15:44:09.265Z,31.55
2018-06-18T15:46:38.898Z,31.50
2018-06-18T15:49:08.761Z,31.36
2018-06-18T15:51:38.662Z,31.29
2018-06-18T15:54:08.690Z,31.80
2018-06-18T15:56:38.599Z,31.46
2018-06-18T15:59:08.211Z,31.54
2018-06-18T16:01:38.175Z,32.15
2018-06-18T16:04:08.084Z,32.85
2018-06-18T16:06:37.896Z,32.47
2018-06-18T16:09:10.255Z,32.58
2018-06-18T16:11:41.248Z,33.00
2018-06-18T16:14:11.526Z,33.37
2018-06-18T16:16:41.911Z,33.25
2018-06-18T16:19:11.637Z,32.87
2018-06-18T16:21:41.418Z,32.91
2018-06-18T16:24:11.082Z,32.65
2018-06-18T16:26:40.864Z,33.30
2018-06-18T16:29:10.636Z,33.58
2018-06-18T16:31:40.537Z,33.38
2018-06-18T16:34:10.253Z,33.11
2018-06-18T16:36:40.097Z,33.07
2018-06-18T16:39:11.828Z,33.27
2018-06-18T16:41:41.830Z,32.90
2018-06-18T16:44:11.808Z,32.88
2018-06-18T16:46:42.741Z,32.56
2018-06-18T16:49:12.598Z,32.16
2018-06-18T16:51:42.349Z,31.94
2018-06-18T16:54:12.364Z,31.92
2018-06-18T16:56:43.099Z,32.14
2018-06-18T16:59:12.694Z,32.12
2018-06-18T17:01:42.466Z,31.77
2018-06-18T17:04:12.245Z,31.44
2018-06-18T17:06:42.263Z,31.15
2018-06-18T17:09:12.764Z,30.85
2018-06-18T17:11:42.399Z,30.85
2018-06-18T17:14:12.509Z,31.05
2018-06-18T17:21:11.906Z,30.11
2018-06-18T17:23:41.556Z,29.89
2018-06-18T17:26:10.927Z,29.60
2018-06-18T17:28:40.438Z,29.34
2018-06-18T17:31:10.039Z,29.34
2018-06-18T17:33:39.650Z,29.24
2018-06-18T17:36:09.329Z,29.03
2018-06-18T17:38:38.873Z,28.78
2018-06-18T17:41:08.360Z,28.64
2018-06-18T17:43:37.823Z,28.48
2018-06-18T17:46:07.445Z,28.24
2018-06-18T17:48:36.894Z,28.02
2018-06-18T17:51:06.368Z,27.95
2018-06-18T17:53:36.098Z,27.71
2018-06-18T17:56:05.890Z,27.60
2018-06-18T17:58:35.405Z,27.44
2018-06-18T18:01:04.960Z,27.33
2018-06-18T18:03:34.570Z,27.25
2018-06-18T18:06:04.041Z,27.18
2018-06-18T18:08:33.540Z,27.04
2018-06-18T18:11:03.074Z,26.81
2018-06-18T18:13:32.633Z,26.63
2018-06-18T18:16:02.063Z,26.56
2018-06-18T18:18:31.715Z,26.33
2018-06-18T18:21:01.327Z,26.12
2018-06-18T18:23:30.857Z,25.84
2018-06-18T18:26:00.468Z,25.59
2018-06-18T18:28:29.917Z,25.36
2018-06-18T18:30:59.508Z,25.13
2018-06-18T18:33:28.897Z,24.91
2018-06-18T18:35:58.540Z,24.72
2018-06-18T18:38:28.112Z,24.46
2018-06-18T18:40:57.613Z,24.25
2018-06-18T18:43:27.119Z,24.03
2018-06-18T18:45:56.742Z,23.81
2018-06-18T18:48:26.139Z,23.64
2018-06-18T18:50:55.699Z,23.45
2018-06-18T18:53:25.175Z,23.29
2018-06-18T18:56:06.837Z,23.09
2018-06-18T18:59:44.917Z,22.87
2018-06-18T19:02:14.567Z,22.55
2018-06-18T19:04:55.933Z,22.43
2018-06-18T19:07:31.129Z,22.28
2018-06-18T19:10:12.961Z,22.14
2018-06-18T19:12:42.482Z,21.99
2018-06-18T19:15:12.415Z,21.86
2018-06-18T19:17:41.996Z,21.73
2018-06-18T19:20:18.033Z,21.61
2018-06-18T19:22:47.532Z,21.56
2018-06-18T19:25:17.059Z,21.47
2018-06-18T19:27:46.708Z,21.39
2018-06-18T19:30:16.381Z,21.30
2018-06-18T19:32:46.280Z,21.25
2018-06-18T19:35:15.760Z,21.19
2018-06-18T19:37:45.429Z,21.12
2018-06-18T19:40:14.912Z,21.06
2018-06-18T19:42:44.573Z,21.01
2018-06-18T19:45:15.588Z,20.99
2018-06-18T19:47:50.916Z,20.93
2018-06-18T19:50:20.335Z,20.89
2018-06-18T19:52:49.825Z,20.86
2018-06-18T19:55:23.637Z,20.82
2018-06-18T19:57:53.298Z,20.78
2018-06-18T20:00:24.410Z,20.78
2018-06-18T20:02:53.950Z,20.75
2018-06-18T20:05:23.520Z,20.69
2018-06-18T20:07:59.213Z,20.65
2018-06-18T20:10:28.836Z,20.60
2018-06-18T20:12:58.533Z,20.55
2018-06-18T20:15:28.037Z,20.53
2018-06-18T20:17:57.537Z,20.48
2018-06-18T20:20:27.017Z,20.46
2018-06-18T20:22:56.486Z,20.45
2018-06-18T20:25:29.846Z,20.40
2018-06-18T20:27:59.498Z,20.36
2018-06-18T20:30:29.058Z,20.31
2018-06-18T20:32:58.531Z,20.19
2018-06-18T20:35:31.439Z,20.08
2018-06-18T20:38:00.964Z,20.00
2018-06-18T20:40:30.442Z,19.93
2018-06-18T20:42:59.914Z,19.84
2018-06-18T20:45:29.893Z,19.77
2018-06-18T20:47:59.397Z,19.74
2018-06-18T20:50:28.969Z,19.73
2018-06-18T20:52:58.383Z,19.72
2018-06-18T20:55:27.840Z,19.70
2018-06-18T20:57:57.480Z,19.59
2018-06-18T21:00:26.937Z,19.44
2018-06-18T21:02:56.348Z,19.23
2018-06-18T21:05:25.775Z,18.97
2018-06-18T21:07:55.281Z,18.78
2018-06-18T21:10:24.870Z,18.75
2018-06-18T21:12:55.445Z,18.64
2018-06-18T21:15:24.849Z,18.51
2018-06-18T21:17:54.315Z,18.53
2018-06-18T21:20:23.658Z,18.60
2018-06-18T21:22:53.383Z,18.58
2018-06-18T21:25:22.868Z,18.48
2018-06-18T21:27:52.443Z,18.53
2018-06-18T21:30:21.991Z,18.51
2018-06-18T21:32:51.479Z,18.43
2018-06-18T21:35:21.015Z,18.40
2018-06-18T21:37:50.613Z,18.43
2018-06-18T21:40:20.146Z,18.17
2018-06-18T21:42:49.686Z,17.90
2018-06-18T21:45:22.940Z,17.77
2018-06-18T21:47:52.606Z,17.71
2018-06-18T21:50:22.048Z,17.66
2018-06-18T21:52:51.548Z,17.66
2018-06-18T21:55:21.247Z,17.58
2018-06-18T21:57:50.892Z,17.60
2018-06-18T22:00:30.448Z,17.74
2018-06-18T22:02:59.931Z,17.82
2018-06-18T22:05:29.466Z,17.87
2018-06-18T22:07:59.072Z,17.99
2018-06-18T22:10:28.571Z,18.05
2018-06-18T22:12:58.074Z,18.12
2018-06-18T22:15:27.606Z,18.19
2018-06-18T22:17:57.198Z,18.21
2018-06-18T22:20:26.912Z,18.23
2018-06-18T22:22:56.541Z,18.26
2018-06-18T22:25:26.049Z,18.27
2018-06-18T22:27:55.947Z,18.31
2018-06-18T22:30:25.741Z,18.31
2018-06-18T22:32:56.291Z,18.32
2018-06-18T22:35:26.152Z,18.32
2018-06-18T22:37:55.601Z,18.34
2018-06-18T22:40:25.129Z,18.34
2018-06-18T22:42:55.595Z,18.29
2018-06-18T22:45:25.415Z,18.18
2018-06-18T22:47:54.885Z,18.08
2018-06-18T22:50:25.327Z,18.01
2018-06-18T22:52:55.837Z,17.99
2018-06-18T22:55:25.304Z,17.94
2018-06-18T22:57:54.909Z,17.87
2018-06-18T23:00:24.408Z,17.71
2018-06-18T23:02:54.109Z,17.61
2018-06-18T23:05:26.361Z,17.50
2018-06-18T23:07:56.278Z,17.39
2018-06-18T23:10:26.113Z,17.29
2018-06-18T23:12:55.632Z,17.16
2018-06-18T23:15:24.996Z,16.97
2018-06-18T23:17:54.393Z,16.86
2018-06-18T23:20:24.957Z,16.75
2018-06-18T23:22:54.448Z,16.61
2018-06-18T23:25:23.853Z,16.57
2018-06-18T23:27:53.640Z,16.56
2018-06-18T23:30:23.098Z,16.61
2018-06-18T23:32:52.520Z,16.61
2018-06-18T23:35:21.993Z,16.56
2018-06-18T23:37:51.402Z,16.47
2018-06-18T23:40:21.032Z,16.36
2018-06-18T23:42:50.570Z,16.26
2018-06-18T23:45:19.987Z,16.22
2018-06-18T23:47:49.564Z,16.20
2018-06-18T23:50:19.268Z,16.18
2018-06-18T23:52:48.785Z,16.14
2018-06-18T23:55:18.389Z,16.17
2018-06-18T23:57:48.041Z,16.20
